sensor_id;sensor_type;location;lat;lon;timestamp;P1;durP1;ratioP1;P2;durP2;ratioP2
22679;SDS011;11507;44.858;10.374;2022-12-29T00:00:09;132.13;;;48.78;;
22679;SDS011;11507;44.858;10.374;2022-12-29T00:02:39;145.23;;;51.65;;
22679;SDS011;11507;44.858;10.374;2022-12-29T00:05:05;135.13;;;52.50;;
22679;SDS011;11507;44.858;10.374;2022-12-29T00:07:32;148.88;;;52.22;;
22679;SDS011;11507;44.858;10.374;2022-12-29T00:12:23;116.80;;;46.83;;
22679;SDS011;11507;44.858;10.374;2022-12-29T00:17:34;113.80;;;45.50;;
22679;SDS011;11507;44.858;10.374;2022-12-29T00:22:46;119.03;;;46.63;;
22679;SDS011;11507;44.858;10.374;2022-12-29T00:25:31;120.68;;;48.70;;
22679;SDS011;11507;44.858;10.374;2022-12-29T00:28:17;133.68;;;50.40;;
22679;SDS011;11507;44.858;10.374;2022-12-29T00:31:03;146.57;;;52.22;;
22679;SDS011;11507;44.858;10.374;2022-12-29T00:33:56;133.10;;;51.83;;
22679;SDS011;11507;44.858;10.374;2022-12-29T00:36:41;132.07;;;51.65;;
22679;SDS011;11507;44.858;10.374;2022-12-29T00:39:10;121.63;;;49.63;;
22679;SDS011;11507;44.858;10.374;2022-12-29T00:42:04;138.32;;;51.78;;
22679;SDS011;11507;44.858;10.374;2022-12-29T00:44:56;136.70;;;52.25;;
22679;SDS011;11507;44.858;10.374;2022-12-29T00:49:48;139.82;;;49.55;;
22679;SDS011;11507;44.858;10.374;2022-12-29T00:52:15;133.93;;;51.40;;
22679;SDS011;11507;44.858;10.374;2022-12-29T00:54:43;143.65;;;53.72;;
22679;SDS011;11507;44.858;10.374;2022-12-29T00:57:10;132.15;;;53.50;;
22679;SDS011;11507;44.858;10.374;2022-12-29T00:59:37;130.10;;;52.47;;
22679;SDS011;11507;44.858;10.374;2022-12-29T01:02:04;149.70;;;54.85;;
22679;SDS011;11507;44.858;10.374;2022-12-29T01:04:31;132.18;;;51.78;;
22679;SDS011;11507;44.858;10.374;2022-12-29T01:06:57;132.50;;;52.60;;
22679;SDS011;11507;44.858;10.374;2022-12-29T01:12:08;134.43;;;51.67;;
22679;SDS011;11507;44.858;10.374;2022-12-29T01:14:34;145.57;;;56.70;;
22679;SDS011;11507;44.858;10.374;2022-12-29T01:17:02;133.90;;;52.47;;
22679;SDS011;11507;44.858;10.374;2022-12-29T01:19:28;151.05;;;54.67;;
22679;SDS011;11507;44.858;10.374;2022-12-29T01:21:55;133.13;;;52.33;;
22679;SDS011;11507;44.858;10.374;2022-12-29T01:24:21;148.35;;;55.58;;
22679;SDS011;11507;44.858;10.374;2022-12-29T01:29:16;149.10;;;53.45;;
22679;SDS011;11507;44.858;10.374;2022-12-29T01:31:46;135.85;;;54.65;;
22679;SDS011;11507;44.858;10.374;2022-12-29T01:34:16;152.57;;;55.22;;
22679;SDS011;11507;44.858;10.374;2022-12-29T01:36:42;157.43;;;56.13;;
22679;SDS011;11507;44.858;10.374;2022-12-29T01:41:33;135.32;;;51.45;;
22679;SDS011;11507;44.858;10.374;2022-12-29T01:44:00;151.07;;;55.67;;
22679;SDS011;11507;44.858;10.374;2022-12-29T01:49:03;141.43;;;53.60;;
22679;SDS011;11507;44.858;10.374;2022-12-29T01:51:43;146.48;;;52.75;;
22679;SDS011;11507;44.858;10.374;2022-12-29T01:54:15;152.82;;;56.40;;
22679;SDS011;11507;44.858;10.374;2022-12-29T01:56:46;152.48;;;55.88;;
22679;SDS011;11507;44.858;10.374;2022-12-29T01:59:15;142.23;;;54.90;;
22679;SDS011;11507;44.858;10.374;2022-12-29T02:01:45;149.20;;;57.65;;
22679;SDS011;11507;44.858;10.374;2022-12-29T02:04:11;158.50;;;57.50;;
22679;SDS011;11507;44.858;10.374;2022-12-29T02:06:41;140.77;;;54.25;;
22679;SDS011;11507;44.858;10.374;2022-12-29T02:09:16;149.35;;;56.40;;
22679;SDS011;11507;44.858;10.374;2022-12-29T02:11:42;132.05;;;53.15;;
22679;SDS011;11507;44.858;10.374;2022-12-29T02:17:41;141.05;;;53.42;;
22679;SDS011;11507;44.858;10.374;2022-12-29T02:22:38;146.35;;;53.45;;
22679;SDS011;11507;44.858;10.374;2022-12-29T02:25:45;128.00;;;52.50;;
22679;SDS011;11507;44.858;10.374;2022-12-29T02:28:35;129.82;;;50.03;;
22679;SDS011;11507;44.858;10.374;2022-12-29T02:33:42;142.02;;;54.40;;
22679;SDS011;11507;44.858;10.374;2022-12-29T02:47:40;110.22;;;47.97;;
22679;SDS011;11507;44.858;10.374;2022-12-29T02:53:19;137.65;;;54.42;;
22679;SDS011;11507;44.858;10.374;2022-12-29T02:55:47;133.27;;;53.63;;
22679;SDS011;11507;44.858;10.374;2022-12-29T02:58:19;124.97;;;51.72;;
22679;SDS011;11507;44.858;10.374;2022-12-29T03:09:30;138.85;;;52.42;;
22679;SDS011;11507;44.858;10.374;2022-12-29T03:20:14;154.70;;;54.03;;
22679;SDS011;11507;44.858;10.374;2022-12-29T03:22:47;150.07;;;54.20;;
22679;SDS011;11507;44.858;10.374;2022-12-29T03:25:26;139.82;;;52.83;;
22679;SDS011;11507;44.858;10.374;2022-12-29T03:28:10;156.88;;;56.78;;
22679;SDS011;11507;44.858;10.374;2022-12-29T03:30:43;147.45;;;57.45;;
22679;SDS011;11507;44.858;10.374;2022-12-29T03:33:19;153.95;;;57.15;;
22679;SDS011;11507;44.858;10.374;2022-12-29T03:35:48;151.63;;;57.03;;
22679;SDS011;11507;44.858;10.374;2022-12-29T03:38:19;144.82;;;55.67;;
22679;SDS011;11507;44.858;10.374;2022-12-29T03:40:48;144.73;;;56.08;;
22679;SDS011;11507;44.858;10.374;2022-12-29T03:43:17;141.27;;;56.08;;
22679;SDS011;11507;44.858;10.374;2022-12-29T03:45:45;160.63;;;58.75;;
22679;SDS011;11507;44.858;10.374;2022-12-29T03:50:39;166.98;;;56.17;;
22679;SDS011;11507;44.858;10.374;2022-12-29T03:53:06;158.95;;;55.63;;
22679;SDS011;11507;44.858;10.374;2022-12-29T03:55:33;153.05;;;55.83;;
22679;SDS011;11507;44.858;10.374;2022-12-29T04:00:39;146.57;;;55.03;;
22679;SDS011;11507;44.858;10.374;2022-12-29T04:05:31;152.18;;;56.30;;
22679;SDS011;11507;44.858;10.374;2022-12-29T04:07:58;148.55;;;57.30;;
22679;SDS011;11507;44.858;10.374;2022-12-29T04:10:25;165.80;;;56.00;;
22679;SDS011;11507;44.858;10.374;2022-12-29T04:12:56;162.50;;;57.97;;
22679;SDS011;11507;44.858;10.374;2022-12-29T04:15:22;151.73;;;56.10;;
22679;SDS011;11507;44.858;10.374;2022-12-29T04:17:49;163.60;;;59.95;;
22679;SDS011;11507;44.858;10.374;2022-12-29T04:20:15;148.50;;;55.45;;
22679;SDS011;11507;44.858;10.374;2022-12-29T04:23:02;166.43;;;57.90;;
22679;SDS011;11507;44.858;10.374;2022-12-29T04:25:31;170.07;;;58.28;;
22679;SDS011;11507;44.858;10.374;2022-12-29T04:27:58;159.88;;;57.33;;
22679;SDS011;11507;44.858;10.374;2022-12-29T04:30:43;159.43;;;56.75;;
22679;SDS011;11507;44.858;10.374;2022-12-29T04:33:24;157.43;;;57.03;;
22679;SDS011;11507;44.858;10.374;2022-12-29T04:35:52;161.55;;;57.67;;
22679;SDS011;11507;44.858;10.374;2022-12-29T04:38:22;145.48;;;53.97;;
22679;SDS011;11507;44.858;10.374;2022-12-29T04:40:49;141.75;;;53.78;;
22679;SDS011;11507;44.858;10.374;2022-12-29T04:43:17;148.68;;;54.20;;
22679;SDS011;11507;44.858;10.374;2022-12-29T04:46:06;145.02;;;54.50;;
22679;SDS011;11507;44.858;10.374;2022-12-29T04:48:58;151.75;;;54.95;;
22679;SDS011;11507;44.858;10.374;2022-12-29T04:51:49;165.63;;;54.40;;
22679;SDS011;11507;44.858;10.374;2022-12-29T04:54:16;144.68;;;54.88;;
22679;SDS011;11507;44.858;10.374;2022-12-29T04:56:46;160.75;;;56.08;;
22679;SDS011;11507;44.858;10.374;2022-12-29T04:59:15;150.68;;;54.88;;
22679;SDS011;11507;44.858;10.374;2022-12-29T05:01:43;165.63;;;56.22;;
22679;SDS011;11507;44.858;10.374;2022-12-29T05:06:36;162.27;;;53.58;;
22679;SDS011;11507;44.858;10.374;2022-12-29T05:11:28;147.35;;;52.90;;
22679;SDS011;11507;44.858;10.374;2022-12-29T05:13:57;155.43;;;54.95;;
22679;SDS011;11507;44.858;10.374;2022-12-29T05:18:49;140.75;;;52.58;;
22679;SDS011;11507;44.858;10.374;2022-12-29T05:21:15;144.65;;;54.35;;
22679;SDS011;11507;44.858;10.374;2022-12-29T05:23:42;150.10;;;54.28;;
22679;SDS011;11507;44.858;10.374;2022-12-29T05:28:54;143.38;;;52.38;;
22679;SDS011;11507;44.858;10.374;2022-12-29T05:31:21;145.10;;;53.15;;
22679;SDS011;11507;44.858;10.374;2022-12-29T05:36:13;144.27;;;54.17;;
22679;SDS011;11507;44.858;10.374;2022-12-29T05:38:44;146.50;;;54.20;;
22679;SDS011;11507;44.858;10.374;2022-12-29T05:41:11;141.55;;;52.20;;
22679;SDS011;11507;44.858;10.374;2022-12-29T05:44:01;161.38;;;57.38;;
22679;SDS011;11507;44.858;10.374;2022-12-29T05:46:29;143.60;;;53.90;;
22679;SDS011;11507;44.858;10.374;2022-12-29T05:49:09;134.30;;;50.47;;
22679;SDS011;11507;44.858;10.374;2022-12-29T05:51:51;147.75;;;53.13;;
22679;SDS011;11507;44.858;10.374;2022-12-29T05:54:17;145.45;;;54.28;;
22679;SDS011;11507;44.858;10.374;2022-12-29T05:56:44;156.20;;;55.20;;
22679;SDS011;11507;44.858;10.374;2022-12-29T05:59:11;143.45;;;52.78;;
22679;SDS011;11507;44.858;10.374;2022-12-29T06:01:37;152.82;;;52.45;;
22679;SDS011;11507;44.858;10.374;2022-12-29T06:06:30;134.20;;;49.78;;
22679;SDS011;11507;44.858;10.374;2022-12-29T06:08:56;144.63;;;53.10;;
22679;SDS011;11507;44.858;10.374;2022-12-29T06:11:22;155.93;;;52.92;;
22679;SDS011;11507;44.858;10.374;2022-12-29T06:13:53;144.73;;;53.97;;
22679;SDS011;11507;44.858;10.374;2022-12-29T06:18:45;151.85;;;50.80;;
22679;SDS011;11507;44.858;10.374;2022-12-29T06:21:11;152.07;;;53.70;;
22679;SDS011;11507;44.858;10.374;2022-12-29T06:26:03;134.73;;;50.83;;
22679;SDS011;11507;44.858;10.374;2022-12-29T06:30:55;141.10;;;52.33;;
22679;SDS011;11507;44.858;10.374;2022-12-29T06:35:46;141.98;;;50.05;;
22679;SDS011;11507;44.858;10.374;2022-12-29T06:38:13;142.50;;;52.45;;
22679;SDS011;11507;44.858;10.374;2022-12-29T06:43:19;149.27;;;54.20;;
22679;SDS011;11507;44.858;10.374;2022-12-29T06:45:57;146.38;;;53.20;;
22679;SDS011;11507;44.858;10.374;2022-12-29T06:50:49;133.90;;;49.20;;
22679;SDS011;11507;44.858;10.374;2022-12-29T06:53:17;127.97;;;48.38;;
22679;SDS011;11507;44.858;10.374;2022-12-29T06:58:09;126.28;;;48.25;;
22679;SDS011;11507;44.858;10.374;2022-12-29T07:03:00;138.23;;;50.15;;
22679;SDS011;11507;44.858;10.374;2022-12-29T07:07:56;142.40;;;53.10;;
22679;SDS011;11507;44.858;10.374;2022-12-29T07:12:48;135.15;;;50.75;;
22679;SDS011;11507;44.858;10.374;2022-12-29T07:17:39;146.38;;;52.33;;
22679;SDS011;11507;44.858;10.374;2022-12-29T07:22:31;139.75;;;52.03;;
22679;SDS011;11507;44.858;10.374;2022-12-29T07:27:23;143.25;;;51.60;;
22679;SDS011;11507;44.858;10.374;2022-12-29T07:32:14;156.60;;;52.17;;
22679;SDS011;11507;44.858;10.374;2022-12-29T07:34:40;143.20;;;55.08;;
22679;SDS011;11507;44.858;10.374;2022-12-29T07:39:33;169.32;;;54.78;;
22679;SDS011;11507;44.858;10.374;2022-12-29T07:44:30;151.90;;;53.30;;
22679;SDS011;11507;44.858;10.374;2022-12-29T07:47:13;156.57;;;54.55;;
22679;SDS011;11507;44.858;10.374;2022-12-29T07:52:05;167.77;;;54.92;;
22679;SDS011;11507;44.858;10.374;2022-12-29T07:56:56;154.77;;;52.40;;
22679;SDS011;11507;44.858;10.374;2022-12-29T07:59:25;174.77;;;57.97;;
22679;SDS011;11507;44.858;10.374;2022-12-29T08:01:51;171.15;;;60.35;;
22679;SDS011;11507;44.858;10.374;2022-12-29T08:06:44;168.60;;;57.83;;
22679;SDS011;11507;44.858;10.374;2022-12-29T08:09:10;150.43;;;56.17;;
22679;SDS011;11507;44.858;10.374;2022-12-29T08:11:37;158.75;;;57.80;;
22679;SDS011;11507;44.858;10.374;2022-12-29T08:16:28;155.05;;;53.50;;
22679;SDS011;11507;44.858;10.374;2022-12-29T08:18:57;155.10;;;55.92;;
22679;SDS011;11507;44.858;10.374;2022-12-29T08:21:24;154.75;;;58.13;;
22679;SDS011;11507;44.858;10.374;2022-12-29T08:23:51;153.63;;;55.85;;
22679;SDS011;11507;44.858;10.374;2022-12-29T08:28:44;145.73;;;55.35;;
22679;SDS011;11507;44.858;10.374;2022-12-29T08:31:10;144.93;;;55.75;;
22679;SDS011;11507;44.858;10.374;2022-12-29T08:36:02;139.65;;;54.10;;
22679;SDS011;11507;44.858;10.374;2022-12-29T08:38:29;146.02;;;54.63;;
22679;SDS011;11507;44.858;10.374;2022-12-29T08:43:22;137.48;;;54.00;;
22679;SDS011;11507;44.858;10.374;2022-12-29T08:45:48;148.55;;;55.35;;
22679;SDS011;11507;44.858;10.374;2022-12-29T08:48:15;140.15;;;52.95;;
22679;SDS011;11507;44.858;10.374;2022-12-29T08:50:43;152.15;;;56.03;;
22679;SDS011;11507;44.858;10.374;2022-12-29T08:53:09;149.10;;;55.47;;
22679;SDS011;11507;44.858;10.374;2022-12-29T08:58:01;139.57;;;53.45;;
22679;SDS011;11507;44.858;10.374;2022-12-29T09:00:28;143.38;;;55.60;;
22679;SDS011;11507;44.858;10.374;2022-12-29T09:02:55;137.15;;;53.63;;
22679;SDS011;11507;44.858;10.374;2022-12-29T09:07:47;140.23;;;53.13;;
22679;SDS011;11507;44.858;10.374;2022-12-29T09:12:39;136.55;;;52.25;;
22679;SDS011;11507;44.858;10.374;2022-12-29T09:17:31;159.18;;;58.03;;
22679;SDS011;11507;44.858;10.374;2022-12-29T09:20:13;151.20;;;60.83;;
22679;SDS011;11507;44.858;10.374;2022-12-29T09:22:43;141.00;;;57.85;;
22679;SDS011;11507;44.858;10.374;2022-12-29T09:25:10;138.82;;;56.55;;
22679;SDS011;11507;44.858;10.374;2022-12-29T09:27:36;148.50;;;58.42;;
22679;SDS011;11507;44.858;10.374;2022-12-29T09:32:32;147.77;;;61.90;;
22679;SDS011;11507;44.858;10.374;2022-12-29T09:34:58;139.57;;;58.90;;
22679;SDS011;11507;44.858;10.374;2022-12-29T09:39:50;143.15;;;54.92;;
22679;SDS011;11507;44.858;10.374;2022-12-29T09:47:42;140.02;;;56.30;;
22679;SDS011;11507;44.858;10.374;2022-12-29T09:52:53;145.48;;;57.70;;
22679;SDS011;11507;44.858;10.374;2022-12-29T09:55:21;133.45;;;55.33;;
22679;SDS011;11507;44.858;10.374;2022-12-29T09:57:54;141.80;;;56.20;;
22679;SDS011;11507;44.858;10.374;2022-12-29T10:00:28;141.48;;;56.80;;
22679;SDS011;11507;44.858;10.374;2022-12-29T10:03:14;139.05;;;55.63;;
22679;SDS011;11507;44.858;10.374;2022-12-29T10:24:32;131.18;;;54.00;;
22679;SDS011;11507;44.858;10.374;2022-12-29T10:27:03;129.23;;;55.13;;
22679;SDS011;11507;44.858;10.374;2022-12-29T10:29:32;141.35;;;55.08;;
22679;SDS011;11507;44.858;10.374;2022-12-29T10:32:02;135.70;;;54.70;;
22679;SDS011;11507;44.858;10.374;2022-12-29T10:34:43;132.48;;;56.50;;
22679;SDS011;11507;44.858;10.374;2022-12-29T10:40:09;129.57;;;52.58;;
22679;SDS011;11507;44.858;10.374;2022-12-29T10:42:43;128.02;;;53.60;;
22679;SDS011;11507;44.858;10.374;2022-12-29T10:45:14;125.60;;;52.33;;
22679;SDS011;11507;44.858;10.374;2022-12-29T10:47:50;122.35;;;53.95;;
22679;SDS011;11507;44.858;10.374;2022-12-29T10:50:29;131.27;;;54.70;;
22679;SDS011;11507;44.858;10.374;2022-12-29T10:55:24;130.10;;;52.45;;
22679;SDS011;11507;44.858;10.374;2022-12-29T10:57:55;129.95;;;54.03;;
22679;SDS011;11507;44.858;10.374;2022-12-29T11:00:24;121.80;;;52.17;;
22679;SDS011;11507;44.858;10.374;2022-12-29T11:08:37;127.95;;;53.45;;
22679;SDS011;11507;44.858;10.374;2022-12-29T11:11:09;142.30;;;53.80;;
22679;SDS011;11507;44.858;10.374;2022-12-29T11:13:46;134.05;;;53.58;;
22679;SDS011;11507;44.858;10.374;2022-12-29T11:16:13;129.32;;;53.42;;
22679;SDS011;11507;44.858;10.374;2022-12-29T11:18:40;130.85;;;53.20;;
22679;SDS011;11507;44.858;10.374;2022-12-29T11:21:32;134.07;;;53.67;;
22679;SDS011;11507;44.858;10.374;2022-12-29T11:24:26;119.93;;;51.53;;
22679;SDS011;11507;44.858;10.374;2022-12-29T11:26:53;126.18;;;52.65;;
22679;SDS011;11507;44.858;10.374;2022-12-29T11:29:38;127.15;;;52.22;;
22679;SDS011;11507;44.858;10.374;2022-12-29T11:34:54;126.75;;;52.80;;
22679;SDS011;11507;44.858;10.374;2022-12-29T11:37:25;127.15;;;53.22;;
22679;SDS011;11507;44.858;10.374;2022-12-29T11:40:04;125.32;;;51.63;;
22679;SDS011;11507;44.858;10.374;2022-12-29T11:42:40;123.50;;;50.83;;
22679;SDS011;11507;44.858;10.374;2022-12-29T11:45:16;120.72;;;51.70;;
22679;SDS011;11507;44.858;10.374;2022-12-29T11:47:49;120.03;;;50.03;;
22679;SDS011;11507;44.858;10.374;2022-12-29T11:50:39;118.88;;;51.17;;
22679;SDS011;11507;44.858;10.374;2022-12-29T11:53:37;123.97;;;49.00;;
22679;SDS011;11507;44.858;10.374;2022-12-29T11:56:04;135.25;;;53.35;;
22679;SDS011;11507;44.858;10.374;2022-12-29T11:58:36;133.48;;;52.90;;
22679;SDS011;11507;44.858;10.374;2022-12-29T12:04:10;122.80;;;52.10;;
22679;SDS011;11507;44.858;10.374;2022-12-29T12:06:48;122.13;;;50.55;;
22679;SDS011;11507;44.858;10.374;2022-12-29T12:10:08;119.93;;;48.75;;
22679;SDS011;11507;44.858;10.374;2022-12-29T12:12:43;126.63;;;51.95;;
22679;SDS011;11507;44.858;10.374;2022-12-29T12:18:08;124.72;;;51.25;;
22679;SDS011;11507;44.858;10.374;2022-12-29T12:20:45;126.00;;;52.03;;
22679;SDS011;11507;44.858;10.374;2022-12-29T12:23:22;121.95;;;50.15;;
22679;SDS011;11507;44.858;10.374;2022-12-29T12:25:54;125.00;;;51.30;;
22679;SDS011;11507;44.858;10.374;2022-12-29T12:28:40;128.18;;;53.78;;
22679;SDS011;11507;44.858;10.374;2022-12-29T12:34:44;126.70;;;51.13;;
22679;SDS011;11507;44.858;10.374;2022-12-29T12:58:20;131.53;;;52.03;;
22679;SDS011;11507;44.858;10.374;2022-12-29T13:03:45;129.93;;;51.50;;
22679;SDS011;11507;44.858;10.374;2022-12-29T13:16:39;117.65;;;46.95;;
22679;SDS011;11507;44.858;10.374;2022-12-29T13:29:46;129.95;;;49.42;;
22679;SDS011;11507;44.858;10.374;2022-12-29T13:35:35;121.50;;;48.90;;
22679;SDS011;11507;44.858;10.374;2022-12-29T13:38:24;135.43;;;51.65;;
22679;SDS011;11507;44.858;10.374;2022-12-29T13:41:03;133.60;;;50.83;;
22679;SDS011;11507;44.858;10.374;2022-12-29T13:43:39;140.98;;;54.42;;
22679;SDS011;11507;44.858;10.374;2022-12-29T13:46:12;124.05;;;52.88;;
22679;SDS011;11507;44.858;10.374;2022-12-29T13:48:55;126.80;;;51.53;;
22679;SDS011;11507;44.858;10.374;2022-12-29T13:51:32;123.80;;;50.55;;
22679;SDS011;11507;44.858;10.374;2022-12-29T13:54:03;122.55;;;49.97;;
22679;SDS011;11507;44.858;10.374;2022-12-29T13:56:59;122.05;;;50.22;;
22679;SDS011;11507;44.858;10.374;2022-12-29T14:07:47;132.45;;;55.13;;
22679;SDS011;11507;44.858;10.374;2022-12-29T14:10:49;128.88;;;50.10;;
22679;SDS011;11507;44.858;10.374;2022-12-29T14:13:21;120.28;;;49.72;;
22679;SDS011;11507;44.858;10.374;2022-12-29T14:15:53;122.25;;;52.80;;
22679;SDS011;11507;44.858;10.374;2022-12-29T14:18:23;126.63;;;50.40;;
22679;SDS011;11507;44.858;10.374;2022-12-29T14:23:49;117.18;;;50.53;;
22679;SDS011;11507;44.858;10.374;2022-12-29T14:28:56;122.75;;;50.05;;
22679;SDS011;11507;44.858;10.374;2022-12-29T14:32:01;117.88;;;47.25;;
22679;SDS011;11507;44.858;10.374;2022-12-29T14:34:48;121.47;;;49.58;;
22679;SDS011;11507;44.858;10.374;2022-12-29T14:37:23;117.13;;;48.35;;
22679;SDS011;11507;44.858;10.374;2022-12-29T14:40:18;116.97;;;48.90;;
22679;SDS011;11507;44.858;10.374;2022-12-29T14:42:52;115.05;;;48.22;;
22679;SDS011;11507;44.858;10.374;2022-12-29T14:47:51;109.20;;;46.50;;
22679;SDS011;11507;44.858;10.374;2022-12-29T14:53:04;115.10;;;47.92;;
22679;SDS011;11507;44.858;10.374;2022-12-29T14:55:47;120.13;;;49.35;;
22679;SDS011;11507;44.858;10.374;2022-12-29T14:58:26;121.78;;;49.63;;
22679;SDS011;11507;44.858;10.374;2022-12-29T15:00:55;126.53;;;48.40;;
22679;SDS011;11507;44.858;10.374;2022-12-29T15:03:23;123.32;;;50.03;;
22679;SDS011;11507;44.858;10.374;2022-12-29T15:05:58;126.85;;;48.58;;
22679;SDS011;11507;44.858;10.374;2022-12-29T15:08:36;128.57;;;49.42;;
22679;SDS011;11507;44.858;10.374;2022-12-29T15:11:16;114.32;;;46.63;;
22679;SDS011;11507;44.858;10.374;2022-12-29T15:13:44;120.40;;;47.33;;
22679;SDS011;11507;44.858;10.374;2022-12-29T15:18:52;124.85;;;49.58;;
22679;SDS011;11507;44.858;10.374;2022-12-29T15:21:22;124.78;;;47.50;;
22679;SDS011;11507;44.858;10.374;2022-12-29T15:23:51;118.28;;;45.50;;
22679;SDS011;11507;44.858;10.374;2022-12-29T15:26:18;126.22;;;47.08;;
22679;SDS011;11507;44.858;10.374;2022-12-29T15:28:49;126.35;;;46.85;;
22679;SDS011;11507;44.858;10.374;2022-12-29T15:31:21;128.05;;;46.00;;
22679;SDS011;11507;44.858;10.374;2022-12-29T15:33:50;129.95;;;47.25;;
22679;SDS011;11507;44.858;10.374;2022-12-29T15:36:19;109.90;;;43.55;;
22679;SDS011;11507;44.858;10.374;2022-12-29T15:38:49;135.23;;;48.65;;
22679;SDS011;11507;44.858;10.374;2022-12-29T15:41:20;140.77;;;50.00;;
22679;SDS011;11507;44.858;10.374;2022-12-29T15:44:34;125.40;;;46.55;;
22679;SDS011;11507;44.858;10.374;2022-12-29T15:47:04;109.65;;;45.80;;
22679;SDS011;11507;44.858;10.374;2022-12-29T15:49:38;132.80;;;49.45;;
22679;SDS011;11507;44.858;10.374;2022-12-29T15:54:33;140.20;;;51.17;;
22679;SDS011;11507;44.858;10.374;2022-12-29T15:57:02;141.57;;;51.03;;
22679;SDS011;11507;44.858;10.374;2022-12-29T15:59:30;135.88;;;50.70;;
22679;SDS011;11507;44.858;10.374;2022-12-29T16:02:00;138.68;;;51.25;;
22679;SDS011;11507;44.858;10.374;2022-12-29T16:04:29;127.70;;;50.53;;
22679;SDS011;11507;44.858;10.374;2022-12-29T16:07:01;120.47;;;48.88;;
22679;SDS011;11507;44.858;10.374;2022-12-29T16:09:30;139.00;;;48.65;;
22679;SDS011;11507;44.858;10.374;2022-12-29T16:11:59;126.43;;;48.90;;
22679;SDS011;11507;44.858;10.374;2022-12-29T16:14:40;141.90;;;52.15;;
22679;SDS011;11507;44.858;10.374;2022-12-29T16:17:13;139.75;;;51.05;;
22679;SDS011;11507;44.858;10.374;2022-12-29T16:19:49;143.43;;;52.22;;
22679;SDS011;11507;44.858;10.374;2022-12-29T16:22:20;140.13;;;51.20;;
22679;SDS011;11507;44.858;10.374;2022-12-29T16:25:04;138.70;;;53.13;;
22679;SDS011;11507;44.858;10.374;2022-12-29T16:27:42;134.55;;;49.75;;
22679;SDS011;11507;44.858;10.374;2022-12-29T16:30:22;148.27;;;53.45;;
22679;SDS011;11507;44.858;10.374;2022-12-29T16:32:54;148.90;;;52.95;;
22679;SDS011;11507;44.858;10.374;2022-12-29T16:35:23;137.93;;;51.45;;
22679;SDS011;11507;44.858;10.374;2022-12-29T16:51:16;135.38;;;50.13;;
22679;SDS011;11507;44.858;10.374;2022-12-29T16:53:48;143.45;;;51.85;;
22679;SDS011;11507;44.858;10.374;2022-12-29T16:56:19;153.80;;;52.40;;
22679;SDS011;11507;44.858;10.374;2022-12-29T16:58:49;148.02;;;53.08;;
22679;SDS011;11507;44.858;10.374;2022-12-29T17:01:19;152.55;;;53.80;;
22679;SDS011;11507;44.858;10.374;2022-12-29T17:03:48;145.20;;;53.35;;
22679;SDS011;11507;44.858;10.374;2022-12-29T17:06:18;139.98;;;48.75;;
22679;SDS011;11507;44.858;10.374;2022-12-29T17:08:45;139.40;;;50.20;;
22679;SDS011;11507;44.858;10.374;2022-12-29T17:17:14;129.93;;;48.20;;
22679;SDS011;11507;44.858;10.374;2022-12-29T17:20:03;136.68;;;47.63;;
22679;SDS011;11507;44.858;10.374;2022-12-29T17:22:34;131.48;;;48.08;;
22679;SDS011;11507;44.858;10.374;2022-12-29T17:25:01;134.00;;;48.40;;
22679;SDS011;11507;44.858;10.374;2022-12-29T17:30:09;112.97;;;43.80;;
22679;SDS011;11507;44.858;10.374;2022-12-29T17:32:37;113.63;;;43.78;;
22679;SDS011;11507;44.858;10.374;2022-12-29T17:35:05;116.97;;;43.95;;
22679;SDS011;11507;44.858;10.374;2022-12-29T17:37:32;112.40;;;43.38;;
22679;SDS011;11507;44.858;10.374;2022-12-29T17:40:01;106.43;;;40.45;;
22679;SDS011;11507;44.858;10.374;2022-12-29T17:42:28;102.82;;;41.45;;
22679;SDS011;11507;44.858;10.374;2022-12-29T17:44:59;104.22;;;40.83;;
22679;SDS011;11507;44.858;10.374;2022-12-29T17:47:26;97.88;;;39.30;;
22679;SDS011;11507;44.858;10.374;2022-12-29T17:52:18;108.93;;;41.22;;
22679;SDS011;11507;44.858;10.374;2022-12-29T17:54:46;96.97;;;40.75;;
22679;SDS011;11507;44.858;10.374;2022-12-29T17:57:16;112.13;;;42.00;;
22679;SDS011;11507;44.858;10.374;2022-12-29T17:59:45;108.85;;;42.40;;
22679;SDS011;11507;44.858;10.374;2022-12-29T18:02:21;97.82;;;41.60;;
22679;SDS011;11507;44.858;10.374;2022-12-29T18:04:53;98.40;;;40.83;;
22679;SDS011;11507;44.858;10.374;2022-12-29T18:07:20;111.28;;;42.53;;
22679;SDS011;11507;44.858;10.374;2022-12-29T18:09:46;105.20;;;42.92;;
22679;SDS011;11507;44.858;10.374;2022-12-29T18:12:24;117.60;;;44.22;;
22679;SDS011;11507;44.858;10.374;2022-12-29T18:14:55;114.15;;;42.00;;
22679;SDS011;11507;44.858;10.374;2022-12-29T18:17:25;110.47;;;42.42;;
22679;SDS011;11507;44.858;10.374;2022-12-29T18:19:50;111.53;;;43.75;;
22679;SDS011;11507;44.858;10.374;2022-12-29T18:22:19;100.38;;;41.17;;
22679;SDS011;11507;44.858;10.374;2022-12-29T18:24:47;119.38;;;44.28;;
22679;SDS011;11507;44.858;10.374;2022-12-29T18:27:14;118.25;;;42.95;;
22679;SDS011;11507;44.858;10.374;2022-12-29T18:29:42;103.13;;;40.72;;
22679;SDS011;11507;44.858;10.374;2022-12-29T18:32:11;116.53;;;40.72;;
22679;SDS011;11507;44.858;10.374;2022-12-29T18:34:38;95.43;;;37.83;;
22679;SDS011;11507;44.858;10.374;2022-12-29T18:37:07;95.57;;;38.00;;
22679;SDS011;11507;44.858;10.374;2022-12-29T18:39:35;87.85;;;36.22;;
22679;SDS011;11507;44.858;10.374;2022-12-29T18:42:04;86.90;;;36.55;;
22679;SDS011;11507;44.858;10.374;2022-12-29T18:44:31;94.60;;;35.40;;
22679;SDS011;11507;44.858;10.374;2022-12-29T18:46:58;84.88;;;35.75;;
22679;SDS011;11507;44.858;10.374;2022-12-29T18:49:25;84.47;;;34.97;;
22679;SDS011;11507;44.858;10.374;2022-12-29T18:56:54;79.45;;;33.33;;
22679;SDS011;11507;44.858;10.374;2022-12-29T18:59:21;84.20;;;32.60;;
22679;SDS011;11507;44.858;10.374;2022-12-29T19:01:47;81.25;;;33.28;;
22679;SDS011;11507;44.858;10.374;2022-12-29T19:04:14;82.22;;;34.92;;
22679;SDS011;11507;44.858;10.374;2022-12-29T19:06:40;72.85;;;32.25;;
22679;SDS011;11507;44.858;10.374;2022-12-29T19:09:06;102.90;;;34.67;;
22679;SDS011;11507;44.858;10.374;2022-12-29T19:11:32;77.80;;;34.42;;
22679;SDS011;11507;44.858;10.374;2022-12-29T19:13:59;80.78;;;32.97;;
22679;SDS011;11507;44.858;10.374;2022-12-29T19:16:26;86.22;;;34.15;;
22679;SDS011;11507;44.858;10.374;2022-12-29T19:18:53;77.32;;;33.67;;
22679;SDS011;11507;44.858;10.374;2022-12-29T19:21:20;78.60;;;32.50;;
22679;SDS011;11507;44.858;10.374;2022-12-29T19:23:47;81.88;;;34.25;;
22679;SDS011;11507;44.858;10.374;2022-12-29T19:28:56;87.90;;;34.75;;
22679;SDS011;11507;44.858;10.374;2022-12-29T19:31:24;73.03;;;30.15;;